Time;durP1;ratioP1;P1;durP2;ratioP2;P2;SDS_P1;SDS_P2;PMS_P1;PMS_P2;Temp;Humidity;BMP_temperature;BMP_pressure;BME280_temperature;BME280_humidity;BME280_pressure;Samples;Min_cycle;Max_cycle;Signal;HPM_P1;HPM_P2
2023/11/14 05:32:30;;;;;;;0.10;0.10;;;14.00;89.10;;;;;;4967632;28;20331;-77
2023/11/14 05:34:56;;;;;;;0.10;0.10;;;14.00;89.00;;;;;;4976933;28;20058;-76
2023/11/14 05:37:22;;;;;;;0.10;0.10;;;14.10;89.00;;;;;;4974542;28;20046;-77
2023/11/14 05:39:47;;;;;;;0.10;0.10;;;14.10;89.00;;;;;;4976857;28;20038;-76
2023/11/14 05:42:13;;;;;;;0.10;0.10;;;14.10;89.00;;;;;;4978086;28;20445;-76
2023/11/14 05:44:38;;;;;;;0.10;0.10;;;14.10;88.90;;;;;;4960489;28;20483;-77
2023/11/14 05:47:04;;;;;;;0.17;0.17;;;14.10;88.90;;;;;;4976221;28;20054;-78
2023/11/14 05:49:30;;;;;;;0.10;0.10;;;14.10;88.90;;;;;;4968418;28;20030;-77
2023/11/14 05:51:55;;;;;;;0.10;0.10;;;14.00;88.90;;;;;;4978115;28;20043;-77
2023/11/14 05:54:21;;;;;;;0.10;0.10;;;14.00;88.90;;;;;;4976090;28;20496;-77
2023/11/14 05:56:47;;;;;;;0.17;0.17;;;14.10;88.90;;;;;;4958609;29;20066;-76
2023/11/14 05:59:12;;;;;;;0.10;0.10;;;14.00;88.90;;;;;;4958593;29;20083;-77
2023/11/14 06:01:38;;;;;;;0.10;0.10;;;14.00;88.90;;;;;;4966895;28;20486;-77
2023/11/14 06:04:03;;;;;;;0.10;0.10;;;14.00;89.00;;;;;;4959963;28;20030;-82
2023/11/14 06:06:29;;;;;;;0.10;0.10;;;14.10;89.00;;;;;;4977385;28;20441;-81
2023/11/14 06:08:55;;;;;;;0.10;0.10;;;14.20;89.00;;;;;;4959990;28;20034;-81
2023/11/14 06:11:20;;;;;;;0.10;0.10;;;14.20;88.70;;;;;;4968511;28;20389;-81
2023/11/14 06:13:46;;;;;;;0.10;0.10;;;14.20;88.80;;;;;;4977787;28;20089;-83
2023/11/14 06:16:12;;;;;;;0.20;0.20;;;14.20;88.60;;;;;;4969221;28;20046;-80
2023/11/14 06:18:37;;;;;;;0.10;0.10;;;14.20;88.60;;;;;;4958130;28;20090;-82
2023/11/14 06:21:03;;;;;;;0.10;0.10;;;14.20;88.80;;;;;;4941574;29;20426;-85
2023/11/14 06:23:29;;;;;;;0.10;0.10;;;14.20;88.60;;;;;;4965869;28;20031;-82
2023/11/14 06:25:56;;;;;;;0.10;0.10;;;14.20;88.60;;;;;;4960135;28;20019;-81
2023/11/14 06:28:21;;;;;;;0.20;0.13;;;14.20;88.60;;;;;;4976299;28;20441;-82
2023/11/14 06:30:47;;;;;;;0.08;0.08;;;14.20;88.30;;;;;;4976122;28;20039;-83
2023/11/14 06:33:13;;;;;;;0.10;0.10;;;14.20;88.40;;;;;;4956260;29;20031;-82
2023/11/14 06:35:38;;;;;;;0.10;0.10;;;14.20;88.50;;;;;;4965430;28;20102;-82
2023/11/14 06:38:04;;;;;;;0.10;0.10;;;14.20;88.40;;;;;;4977043;28;20493;-82
2023/11/14 06:40:30;;;;;;;0.10;0.10;;;14.20;88.40;;;;;;4975915;28;20015;-82
2023/11/14 06:42:56;;;;;;;0.10;0.10;;;14.20;88.30;;;;;;4955489;28;20125;-83
2023/11/14 06:45:22;;;;;;;0.00;0.00;;;14.20;88.30;;;;;;4977023;28;20482;-82
2023/11/14 06:47:47;;;;;;;0.10;0.10;;;14.20;88.10;;;;;;4980896;28;20022;-79
2023/11/14 06:50:13;;;;;;;0.10;0.10;;;14.20;88.20;;;;;;4979710;28;20694;-79
2023/11/14 06:52:39;;;;;;;0.10;0.10;;;14.20;88.20;;;;;;4981238;28;20041;-78
2023/11/14 06:55:05;;;;;;;0.10;0.10;;;14.20;88.10;;;;;;4979652;28;20106;-78
2023/11/14 06:57:33;;;;;;;0.10;0.10;;;14.30;88.10;;;;;;4963254;28;20027;-79
2023/11/14 07:00:00;;;;;;;0.10;0.10;;;14.30;88.10;;;;;;4977136;28;20027;-78
2023/11/14 07:02:26;;;;;;;0.10;0.10;;;14.30;88.00;;;;;;4976855;28;20038;-83
2023/11/14 07:04:53;;;;;;;0.10;0.10;;;14.30;87.90;;;;;;4961942;28;20032;-82
2023/11/14 07:07:19;;;;;;;0.10;0.10;;;14.30;88.00;;;;;;4963495;28;20552;-82
2023/11/14 07:09:44;;;;;;;0.10;0.10;;;14.20;88.00;;;;;;4980675;28;20026;-82
2023/11/14 07:12:10;;;;;;;0.10;0.10;;;14.20;87.90;;;;;;4958770;29;20035;-82
2023/11/14 07:14:36;;;;;;;0.10;0.10;;;14.30;88.00;;;;;;4943807;29;20405;-83
2023/11/14 07:17:01;;;;;;;0.10;0.10;;;14.30;87.90;;;;;;4969922;28;20397;-83
2023/11/14 07:19:27;;;;;;;0.10;0.10;;;14.20;88.00;;;;;;4980712;28;20544;-83
2023/11/14 07:21:53;;;;;;;0.10;0.10;;;14.20;88.00;;;;;;4963128;28;20037;-83
2023/11/14 07:24:19;;;;;;;0.20;0.20;;;14.20;88.20;;;;;;4995219;28;20019;-82
2023/11/14 07:26:44;;;;;;;0.10;0.10;;;14.20;88.30;;;;;;4980524;28;20034;-82
2023/11/14 07:29:11;;;;;;;0.10;0.10;;;14.20;88.30;;;;;;4977010;28;20023;-83
2023/11/14 07:31:36;;;;;;;0.10;0.10;;;14.20;88.30;;;;;;4961283;29;20081;-82
2023/11/14 07:34:03;;;;;;;0.10;0.10;;;14.20;88.30;;;;;;4961315;29;20031;-83
2023/11/14 07:36:28;;;;;;;0.10;0.10;;;14.30;88.00;;;;;;4961084;28;20027;-82
2023/11/14 07:38:54;;;;;;;0.10;0.10;;;14.30;88.00;;;;;;4960994;28;20071;-82
2023/11/14 07:41:20;;;;;;;0.10;0.10;;;14.30;88.00;;;;;;4975739;28;20035;-82
2023/11/14 07:43:45;;;;;;;0.20;0.20;;;14.20;87.80;;;;;;4962829;28;20053;-82
2023/11/14 07:46:11;;;;;;;0.10;0.10;;;14.20;87.70;;;;;;4980548;28;20081;-82
2023/11/14 07:48:38;;;;;;;0.10;0.10;;;14.20;87.80;;;;;;4965641;28;20375;-81
2023/11/14 07:51:04;;;;;;;0.10;0.10;;;14.20;87.70;;;;;;4999776;28;20029;-83
2023/11/14 07:53:29;;;;;;;0.10;0.10;;;14.20;87.50;;;;;;4996281;28;20109;-82
2023/11/14 07:55:55;;;;;;;0.13;0.10;;;14.10;87.30;;;;;;4970101;28;20042;-83
2023/11/14 07:58:23;;;;;;;0.10;0.10;;;14.10;87.30;;;;;;4960842;29;20090;-83
2023/11/14 08:00:49;;;;;;;0.10;0.10;;;14.10;87.20;;;;;;4959271;28;20446;-83
2023/11/14 08:03:15;;;;;;;0.10;0.10;;;14.10;87.20;;;;;;4988295;28;20021;-82
2023/11/14 08:05:41;;;;;;;0.10;0.10;;;14.10;87.00;;;;;;4980164;28;20457;-83
2023/11/14 08:08:10;;;;;;;0.10;0.10;;;14.10;86.90;;;;;;4967737;28;20024;-82
2023/11/14 08:10:39;;;;;;;0.10;0.10;;;14.10;87.10;;;;;;4960584;29;20034;-82
2023/11/14 08:13:06;;;;;;;0.10;0.10;;;14.10;87.10;;;;;;4943495;29;20023;-82
2023/11/14 08:15:31;;;;;;;0.10;0.10;;;14.00;87.00;;;;;;4960316;28;20039;-82
2023/11/14 08:17:57;;;;;;;0.10;0.10;;;14.00;87.00;;;;;;4976625;28;20023;-83
2023/11/14 08:20:23;;;;;;;0.10;0.10;;;14.00;87.20;;;;;;4959218;28;20031;-83
2023/11/14 08:22:51;;;;;;;0.10;0.10;;;13.90;87.00;;;;;;4960367;29;20026;-82
2023/11/14 08:25:20;;;;;;;0.10;0.10;;;14.00;87.20;;;;;;4960437;29;20034;-82
2023/11/14 08:27:46;;;;;;;0.10;0.10;;;14.00;87.20;;;;;;4960265;29;20019;-82
2023/11/14 08:30:12;;;;;;;0.10;0.10;;;13.90;87.40;;;;;;4959711;28;20043;-82
2023/11/14 08:32:39;;;;;;;0.10;0.10;;;13.90;87.50;;;;;;4960193;29;20054;-83
2023/11/14 08:35:09;;;;;;;0.10;0.10;;;13.90;87.50;;;;;;4959033;28;20031;-82
2023/11/14 08:37:35;;;;;;;0.10;0.10;;;14.00;87.40;;;;;;4994148;28;20086;-82
2023/11/14 08:40:02;;;;;;;0.10;0.10;;;14.00;87.40;;;;;;4975155;28;20026;-82
2023/11/14 08:42:29;;;;;;;0.10;0.10;;;13.90;87.30;;;;;;4979246;28;20030;-82
2023/11/14 08:44:55;;;;;;;0.10;0.10;;;13.90;87.10;;;;;;4979471;28;20074;-83
2023/11/14 08:47:22;;;;;;;0.20;0.20;;;13.80;86.80;;;;;;4962084;28;20027;-82
2023/11/14 08:49:48;;;;;;;0.10;0.10;;;13.80;86.70;;;;;;4961307;28;20398;-82
2023/11/14 08:52:14;;;;;;;0.00;0.00;;;13.80;86.70;;;;;;4959837;29;20088;-83
2023/11/14 08:54:40;;;;;;;0.10;0.10;;;13.80;86.90;;;;;;4959491;28;20042;-82
2023/11/14 08:57:06;;;;;;;0.10;0.10;;;13.90;86.90;;;;;;4959815;29;20057;-83
2023/11/14 08:59:31;;;;;;;0.10;0.10;;;13.90;86.70;;;;;;4959512;28;20035;-83
2023/11/14 09:01:57;;;;;;;0.10;0.10;;;13.90;87.10;;;;;;4959623;29;20481;-83
2023/11/14 09:04:22;;;;;;;0.10;0.10;;;13.80;86.60;;;;;;4959536;28;20474;-82
2023/11/14 09:06:48;;;;;;;0.10;0.10;;;13.80;86.90;;;;;;4956497;28;20031;-82
2023/11/14 09:09:14;;;;;;;0.10;0.10;;;13.90;86.90;;;;;;4962805;28;20042;-82
2023/11/14 09:11:39;;;;;;;0.10;0.10;;;13.80;86.60;;;;;;4974116;28;20019;-82
2023/11/14 09:14:05;;;;;;;0.10;0.10;;;13.90;86.40;;;;;;4959542;29;20118;-83
2023/11/14 09:16:31;;;;;;;0.10;0.10;;;13.90;86.40;;;;;;4975733;28;20049;-82
2023/11/14 09:18:59;;;;;;;0.10;0.10;;;14.00;86.10;;;;;;4966868;28;20486;-83
2023/11/14 09:21:25;;;;;;;0.10;0.10;;;14.00;86.00;;;;;;4959249;29;20024;-82
2023/11/14 09:23:50;;;;;;;0.10;0.10;;;14.00;85.60;;;;;;4974436;28;20064;-82
2023/11/14 09:26:16;;;;;;;0.10;0.10;;;14.00;85.50;;;;;;4959121;29;20085;-82
2023/11/14 09:28:42;;;;;;;0.10;0.10;;;14.00;85.40;;;;;;4958913;28;20058;-83
2023/11/14 09:31:08;;;;;;;0.10;0.10;;;14.00;84.80;;;;;;4958971;29;20506;-82
2023/11/14 09:33:35;;;;;;;0.08;0.08;;;14.00;85.00;;;;;;4958962;28;20042;-82
2023/11/14 09:36:01;;;;;;;0.10;0.10;;;14.00;84.30;;;;;;4959249;29;20023;-84
2023/11/14 09:38:27;;;;;;;0.10;0.10;;;14.10;84.40;;;;;;4959208;29;20118;-83
2023/11/14 09:40:53;;;;;;;0.10;0.10;;;14.10;84.10;;;;;;4963690;28;20063;-82
2023/11/14 09:43:21;;;;;;;0.00;0.00;;;14.10;84.10;;;;;;4959029;29;20030;-82
2023/11/14 09:45:46;;;;;;;0.10;0.10;;;14.10;84.10;;;;;;4958649;28;20102;-82
2023/11/14 09:48:12;;;;;;;0.10;0.10;;;14.10;83.90;;;;;;4974154;28;20059;-84
2023/11/14 09:50:41;;;;;;;0.10;0.10;;;14.10;84.10;;;;;;4958722;29;20470;-82
2023/11/14 09:53:07;;;;;;;0.10;0.10;;;14.20;84.30;;;;;;4958684;28;20035;-82
2023/11/14 09:55:36;;;;;;;0.10;0.10;;;14.20;84.20;;;;;;4941871;29;20491;-82
2023/11/14 09:58:05;;;;;;;0.10;0.10;;;14.20;84.30;;;;;;4982567;28;20038;-82
2023/11/14 10:00:33;;;;;;;0.10;0.10;;;14.30;84.60;;;;;;4976374;28;20026;-83
2023/11/14 10:02:59;;;;;;;0.10;0.10;;;14.30;84.30;;;;;;4958806;29;20078;-83
2023/11/14 10:05:25;;;;;;;0.10;0.10;;;14.40;84.20;;;;;;4965155;28;20031;-83
2023/11/14 10:07:50;;;;;;;0.10;0.10;;;14.40;84.40;;;;;;4978012;28;20038;-82
2023/11/14 10:10:16;;;;;;;0.10;0.10;;;14.40;84.30;;;;;;4943470;29;20032;-82
2023/11/14 10:12:42;;;;;;;0.08;0.08;;;14.40;84.50;;;;;;4973203;28;20034;-82
2023/11/14 10:15:08;;;;;;;0.10;0.10;;;14.30;84.50;;;;;;4958680;29;20023;-81
2023/11/14 10:17:45;;;;;;;0.00;0.00;;;14.30;84.80;;;;;;4971548;28;20038;-83
2023/11/14 10:20:12;;;;;;;0.10;0.10;;;14.30;84.80;;;;;;4980096;28;20022;-82
2023/11/14 10:22:58;;;;;;;0.10;0.10;;;14.40;84.90;;;;;;4966341;28;20032;-82
2023/11/14 10:25:29;;;;;;;0.10;0.10;;;14.30;84.90;;;;;;4962682;29;20027;-81
2023/11/14 10:28:00;;;;;;;0.10;0.10;;;14.30;84.80;;;;;;4961168;28;20549;-82
2023/11/14 10:30:49;;;;;;;0.10;0.10;;;14.40;85.00;;;;;;4962192;29;20019;-83
2023/11/14 10:33:16;;;;;;;0.10;0.10;;;14.30;85.20;;;;;;4962793;29;20035;-82
2023/11/14 10:35:43;;;;;;;0.10;0.10;;;14.30;85.50;;;;;;4962322;29;20401;-81
2023/11/14 10:38:20;;;;;;;0.10;0.10;;;14.30;85.70;;;;;;4962034;28;20031;-82
2023/11/14 10:40:47;;;;;;;0.10;0.10;;;14.30;85.80;;;;;;4972067;28;20041;-81
2023/11/14 10:43:14;;;;;;;0.10;0.10;;;14.40;86.00;;;;;;4974995;28;20034;-81
2023/11/14 10:45:40;;;;;;;0.10;0.10;;;14.40;86.10;;;;;;4962144;29;20394;-81
2023/11/14 10:48:06;;;;;;;0.10;0.10;;;14.40;86.30;;;;;;4962190;29;20027;-83
2023/11/14 10:50:34;;;;;;;0.10;0.10;;;14.50;86.40;;;;;;4960819;28;20031;-82
2023/11/14 10:53:00;;;;;;;0.10;0.10;;;14.50;86.40;;;;;;4977200;28;20117;-83
2023/11/14 10:55:26;;;;;;;0.10;0.10;;;14.60;86.50;;;;;;4944592;29;20035;-82
2023/11/14 10:57:54;;;;;;;0.10;0.10;;;14.60;86.60;;;;;;4945003;29;20042;-81
2023/11/14 11:00:21;;;;;;;0.10;0.10;;;14.70;86.70;;;;;;4961707;28;20490;-82
2023/11/14 11:02:53;;;;;;;0.10;0.10;;;14.70;86.60;;;;;;4962046;29;20118;-82
2023/11/14 11:05:28;;;;;;;0.10;0.10;;;14.80;86.70;;;;;;4945065;29;20031;-82
2023/11/14 11:07:53;;;;;;;0.10;0.10;;;14.70;86.90;;;;;;4961869;29;20027;-82
2023/11/14 11:10:20;;;;;;;0.03;0.03;;;14.60;87.00;;;;;;4961447;28;20038;-82
2023/11/14 11:12:46;;;;;;;0.10;0.10;;;14.60;87.10;;;;;;4961710;29;20479;-82
2023/11/14 11:15:14;;;;;;;0.10;0.10;;;14.50;87.30;;;;;;4963346;28;20027;-82
2023/11/14 11:17:41;;;;;;;0.10;0.10;;;14.50;87.40;;;;;;4962777;28;20031;-82
2023/11/14 11:20:09;;;;;;;0.10;0.10;;;14.50;87.50;;;;;;4962557;28;20856;-82
2023/11/14 11:23:04;;;;;;;0.10;0.10;;;14.50;87.60;;;;;;4944587;29;20023;-83
2023/11/14 11:25:31;;;;;;;0.00;0.00;;;14.50;87.80;;;;;;4941750;29;20537;-83
2023/11/14 11:27:57;;;;;;;0.10;0.10;;;14.50;87.80;;;;;;4944744;29;20039;-84
2023/11/14 11:30:24;;;;;;;0.05;0.05;;;14.40;88.10;;;;;;4960871;28;20035;-83
2023/11/14 11:32:55;;;;;;;0.00;0.00;;;14.50;88.40;;;;;;4961387;29;20055;-83
2023/11/14 11:35:28;;;;;;;0.10;0.10;;;14.50;88.60;;;;;;4961167;28;20027;-84
2023/11/14 11:37:57;;;;;;;0.10;0.10;;;14.60;88.40;;;;;;4944293;29;20028;-84
2023/11/14 11:40:25;;;;;;;0.10;0.10;;;14.50;88.30;;;;;;4951105;28;20030;-84
2023/11/14 11:42:56;;;;;;;0.00;0.00;;;14.40;88.70;;;;;;4965394;28;20086;-83
2023/11/14 11:45:28;;;;;;;0.10;0.10;;;14.50;88.50;;;;;;4961164;29;20023;-83
2023/11/14 11:47:56;;;;;;;0.10;0.10;;;14.40;88.40;;;;;;4959927;29;20023;-85
2023/11/14 11:50:33;;;;;;;0.10;0.10;;;14.50;88.40;;;;;;4960929;28;20102;-84
2023/11/14 11:53:06;;;;;;;0.10;0.10;;;14.60;88.50;;;;;;4960590;28;20086;-83
2023/11/14 11:55:34;;;;;;;0.10;0.10;;;14.70;88.30;;;;;;4961181;29;20031;-83
2023/11/14 11:58:04;;;;;;;0.08;0.08;;;14.80;88.50;;;;;;4995856;28;20038;-83
2023/11/14 12:00:30;;;;;;;0.10;0.10;;;14.80;88.10;;;;;;4982664;28;20402;-84
2023/11/14 12:03:01;;;;;;;0.10;0.10;;;14.90;88.00;;;;;;4979951;28;20409;-84
2023/11/14 12:05:28;;;;;;;0.10;0.10;;;15.20;88.10;;;;;;4979067;28;20058;-84
2023/11/14 12:07:55;;;;;;;0.10;0.10;;;15.20;88.10;;;;;;4990077;28;20049;-84
2023/11/14 12:10:21;;;;;;;0.10;0.10;;;15.20;88.00;;;;;;4980209;28;20030;-84
2023/11/14 12:12:47;;;;;;;0.10;0.10;;;15.10;88.10;;;;;;4980016;28;20105;-83
2023/11/14 12:15:16;;;;;;;0.10;0.10;;;15.20;88.20;;;;;;4963656;28;20059;-83
2023/11/14 12:17:49;;;;;;;0.10;0.10;;;15.30;88.10;;;;;;4959322;29;20372;-83
2023/11/14 12:20:15;;;;;;;0.10;0.10;;;15.20;88.00;;;;;;4960438;28;20062;-83
2023/11/14 12:22:42;;;;;;;0.00;0.00;;;15.20;88.10;;;;;;4960285;29;20031;-83
2023/11/14 12:25:09;;;;;;;0.10;0.10;;;15.30;88.10;;;;;;4975178;28;20023;-84
2023/11/14 12:27:35;;;;;;;0.10;0.10;;;15.50;87.90;;;;;;4959917;28;20027;-83
2023/11/14 12:30:09;;;;;;;0.10;0.10;;;15.50;87.60;;;;;;4960218;29;20059;-83
2023/11/14 12:32:37;;;;;;;0.10;0.10;;;15.60;87.50;;;;;;4960068;29;20046;-84
2023/11/14 12:35:03;;;;;;;0.10;0.10;;;15.70;87.20;;;;;;4958866;29;20479;-84
2023/11/14 12:37:29;;;;;;;0.10;0.10;;;15.70;86.90;;;;;;4942683;29;20038;-84
2023/11/14 12:40:06;;;;;;;0.10;0.10;;;15.70;86.80;;;;;;4963371;28;20409;-83
2023/11/14 12:42:39;;;;;;;0.10;0.10;;;15.80;86.70;;;;;;4957982;28;20426;-83
2023/11/14 12:45:08;;;;;;;;;;;15.80;85.80;;;;;;4960503;29;20034;-83
2023/11/14 12:47:40;;;;;;;0.10;0.10;;;15.80;85.80;;;;;;4960021;28;20328;-83
2023/11/14 12:50:09;;;;;;;0.10;0.10;;;15.80;85.30;;;;;;4942555;29;20035;-84
2023/11/14 12:52:38;;;;;;;0.10;0.10;;;15.80;84.70;;;;;;4942872;29;20090;-83
2023/11/14 12:55:05;;;;;;;0.10;0.10;;;15.70;84.00;;;;;;4959936;28;20019;-83
2023/11/14 12:57:31;;;;;;;0.10;0.10;;;15.80;84.60;;;;;;4959746;29;20050;-84
2023/11/14 12:59:57;;;;;;;0.10;0.10;;;15.80;84.40;;;;;;4959428;28;20102;-83
2023/11/14 13:02:23;;;;;;;0.10;0.10;;;15.80;83.00;;;;;;4959870;29;20039;-84
2023/11/14 13:04:49;;;;;;;0.10;0.10;;;15.80;83.90;;;;;;4959594;29;20030;-83
2023/11/14 13:07:15;;;;;;;0.00;0.00;;;15.80;83.40;;;;;;4977149;28;20027;-83
2023/11/14 13:09:41;;;;;;;0.00;0.00;;;15.90;83.10;;;;;;4961544;28;20485;-85
2023/11/14 13:12:12;;;;;;;0.10;0.10;;;15.90;83.20;;;;;;4977489;28;20042;-84
2023/11/14 13:14:40;;;;;;;0.10;0.10;;;15.90;82.30;;;;;;4972246;28;20026;-83
2023/11/14 13:17:08;;;;;;;0.10;0.10;;;16.10;83.00;;;;;;4968857;28;20027;-83
2023/11/14 13:19:36;;;;;;;0.10;0.10;;;16.30;82.10;;;;;;4961232;28;20050;-84
2023/11/14 13:22:03;;;;;;;0.10;0.10;;;16.50;81.60;;;;;;4978716;28;20041;-84
2023/11/14 13:24:29;;;;;;;0.10;0.10;;;16.40;81.30;;;;;;4961131;28;20019;-84
2023/11/14 13:26:55;;;;;;;0.10;0.10;;;16.40;80.80;;;;;;4959052;28;20038;-83
2023/11/14 13:29:20;;;;;;;0.05;0.05;;;16.40;81.00;;;;;;4957835;29;20027;-83
2023/11/14 13:31:46;;;;;;;0.10;0.10;;;16.30;79.40;;;;;;4959009;29;20055;-85
2023/11/14 13:34:11;;;;;;;0.03;0.03;;;16.30;78.20;;;;;;4958826;28;20019;-83
2023/11/14 13:36:37;;;;;;;0.10;0.10;;;16.20;77.90;;;;;;4957997;29;20094;-84
2023/11/14 13:39:05;;;;;;;0.10;0.10;;;16.20;77.60;;;;;;4956818;29;20028;-82
2023/11/14 13:41:32;;;;;;;0.10;0.10;;;16.20;77.80;;;;;;4975029;28;20027;-83
2023/11/14 13:43:58;;;;;;;0.10;0.10;;;16.00;76.80;;;;;;4978232;28;20101;-83
2023/11/14 13:46:23;;;;;;;0.10;0.10;;;16.00;76.80;;;;;;4977597;28;20081;-82
2023/11/14 13:48:49;;;;;;;0.10;0.10;;;15.90;76.40;;;;;;4957783;29;20023;-83
2023/11/14 13:51:15;;;;;;;0.10;0.10;;;15.90;76.80;;;;;;4958927;29;20059;-83
2023/11/14 13:53:40;;;;;;;0.10;0.10;;;15.80;76.00;;;;;;4958231;28;20019;-83
2023/11/14 13:56:07;;;;;;;0.10;0.10;;;15.70;76.10;;;;;;4958510;28;20031;-82
2023/11/14 13:58:35;;;;;;;0.10;0.10;;;15.70;76.60;;;;;;4970194;28;20397;-83
2023/11/14 14:01:03;;;;;;;0.10;0.10;;;15.80;74.70;;;;;;4978972;28;20486;-83
2023/11/14 14:03:28;;;;;;;0.00;0.00;;;15.80;74.80;;;;;;4978265;28;20022;-83
2023/11/14 14:05:54;;;;;;;0.05;0.05;;;15.80;74.30;;;;;;4984273;28;20082;-84
2023/11/14 14:08:20;;;;;;;0.10;0.10;;;15.80;72.70;;;;;;4958486;29;20054;-83
2023/11/14 14:10:46;;;;;;;0.05;0.05;;;15.70;73.90;;;;;;4958671;29;20628;-83
2023/11/14 14:13:12;;;;;;;0.10;0.10;;;15.50;72.90;;;;;;4980965;28;20035;-83
2023/11/14 14:15:38;;;;;;;0.10;0.10;;;15.50;73.40;;;;;;4971656;28;20102;-83
2023/11/14 14:18:04;;;;;;;0.10;0.10;;;15.40;74.10;;;;;;4975387;28;20031;-83
2023/11/14 14:20:31;;;;;;;0.10;0.10;;;15.30;74.10;;;;;;4977850;28;20023;-83
2023/11/14 14:22:56;;;;;;;0.00;0.00;;;15.30;73.90;;;;;;4960322;28;20023;-82
2023/11/14 14:25:24;;;;;;;0.00;0.00;;;15.20;73.80;;;;;;4958553;29;20030;-83
2023/11/14 14:27:50;;;;;;;0.10;0.10;;;15.10;74.40;;;;;;4958214;28;20494;-82
2023/11/14 14:30:17;;;;;;;0.10;0.10;;;15.00;73.60;;;;;;4973238;28;20450;-82
2023/11/14 14:32:44;;;;;;;0.10;0.10;;;14.90;74.60;;;;;;4955975;29;20517;-82
2023/11/14 14:35:12;;;;;;;0.10;0.10;;;14.90;75.10;;;;;;4941477;29;20038;-82
2023/11/14 14:37:41;;;;;;;0.10;0.10;;;14.80;75.50;;;;;;4958398;29;20106;-82
2023/11/14 14:40:08;;;;;;;0.10;0.10;;;14.80;75.60;;;;;;4958885;28;20550;-83
2023/11/14 14:42:34;;;;;;;0.10;0.10;;;14.70;74.90;;;;;;4958301;29;20039;-82
2023/11/14 14:45:00;;;;;;;0.10;0.10;;;14.70;75.60;;;;;;4958195;28;20023;-82
2023/11/14 14:47:25;;;;;;;0.10;0.10;;;14.70;75.60;;;;;;4941292;29;20027;-82
2023/11/14 14:49:52;;;;;;;0.10;0.10;;;14.60;75.40;;;;;;4957177;29;20034;-82
2023/11/14 14:52:18;;;;;;;0.10;0.10;;;14.70;75.60;;;;;;4958672;29;20027;-83
2023/11/14 14:54:44;;;;;;;0.10;0.10;;;14.70;75.60;;;;;;4957994;28;20478;-82
2023/11/14 14:57:09;;;;;;;0.08;0.08;;;14.70;75.80;;;;;;4958331;29;20027;-83
2023/11/14 14:59:37;;;;;;;0.00;0.00;;;14.70;76.30;;;;;;4958152;29;20091;-82
2023/11/14 15:02:04;;;;;;;0.10;0.10;;;14.70;76.20;;;;;;4941157;29;20020;-83
2023/11/14 15:04:31;;;;;;;0.10;0.10;;;14.70;76.50;;;;;;4958080;29;20489;-82
2023/11/14 15:06:57;;;;;;;0.10;0.10;;;14.70;76.50;;;;;;4961328;28;20031;-82
2023/11/14 15:09:27;;;;;;;0.10;0.10;;;14.70;77.20;;;;;;4961775;29;20034;-82
2023/11/14 15:11:56;;;;;;;0.10;0.10;;;14.80;77.00;;;;;;4961603;28;20423;-82
2023/11/14 15:14:25;;;;;;;0.10;0.10;;;14.70;76.80;;;;;;4961748;29;20027;-82
2023/11/14 15:16:52;;;;;;;0.10;0.10;;;14.70;76.90;;;;;;4968888;28;20018;-82
2023/11/14 15:19:18;;;;;;;0.10;0.10;;;14.70;76.80;;;;;;4980668;28;20025;-82
2023/11/14 15:21:43;;;;;;;0.10;0.10;;;14.70;77.30;;;;;;4968747;28;20538;-82
2023/11/14 15:24:09;;;;;;;0.10;0.10;;;14.70;77.20;;;;;;4961569;29;20038;-83
2023/11/14 15:26:35;;;;;;;0.10;0.10;;;14.70;77.50;;;;;;4961304;28;20406;-82
2023/11/14 15:29:03;;;;;;;0.03;0.03;;;14.70;77.40;;;;;;4976298;28;20390;-82
2023/11/14 15:31:31;;;;;;;0.08;0.08;;;14.70;77.30;;;;;;4961252;29;20387;-82
2023/11/14 15:33:57;;;;;;;0.05;0.05;;;14.70;77.50;;;;;;4961409;29;20027;-83
2023/11/14 15:36:27;;;;;;;0.10;0.10;;;14.70;76.90;;;;;;4961540;28;20046;-82
2023/11/14 15:38:53;;;;;;;0.10;0.10;;;14.70;77.40;;;;;;4961168;29;20031;-82
2023/11/14 15:41:20;;;;;;;0.08;0.08;;;14.70;77.50;;;;;;4959837;29;20031;-82
2023/11/14 15:43:47;;;;;;;0.08;0.08;;;14.60;77.30;;;;;;4960899;28;20398;-82
2023/11/14 15:46:14;;;;;;;0.00;0.00;;;14.60;77.70;;;;;;4944129;29;20055;-83
2023/11/14 15:48:40;;;;;;;0.08;0.08;;;14.60;78.10;;;;;;4960925;28;20115;-82
2023/11/14 15:51:06;;;;;;;0.10;0.10;;;14.60;78.10;;;;;;4961214;28;20042;-82
2023/11/14 15:53:31;;;;;;;0.03;0.03;;;14.50;77.80;;;;;;4967573;28;20014;-82
2023/11/14 15:55:57;;;;;;;0.10;0.10;;;14.50;78.30;;;;;;4991502;28;20042;-83
2023/11/14 15:58:24;;;;;;;0.00;0.00;;;14.50;78.40;;;;;;4999521;28;20520;-82
2023/11/14 16:00:50;;;;;;;0.10;0.10;;;14.40;78.30;;;;;;4987632;28;20032;-83
2023/11/14 16:03:16;;;;;;;0.10;0.10;;;14.30;78.20;;;;;;4960809;29;20086;-83
2023/11/14 16:05:41;;;;;;;0.10;0.10;;;14.30;78.50;;;;;;4960813;29;20016;-82
2023/11/14 16:08:07;;;;;;;0.08;0.08;;;14.30;78.20;;;;;;4960709;29;20099;-82
2023/11/14 16:10:33;;;;;;;0.00;0.00;;;14.30;78.50;;;;;;4943801;29;20038;-82
2023/11/14 16:12:59;;;;;;;0.10;0.10;;;14.20;78.50;;;;;;4943599;29;20098;-82
2023/11/14 16:15:25;;;;;;;0.10;0.10;;;14.20;78.80;;;;;;4943448;29;20455;-82
2023/11/14 16:17:50;;;;;;;0.08;0.08;;;14.20;79.20;;;;;;4979138;28;20027;-83
2023/11/14 16:20:16;;;;;;;0.00;0.00;;;14.10;79.00;;;;;;4960567;28;20159;-82
2023/11/14 16:22:42;;;;;;;0.00;0.00;;;14.00;79.30;;;;;;4960872;29;20093;-82
2023/11/14 16:25:08;;;;;;;0.00;0.00;;;13.90;79.40;;;;;;4960364;29;20031;-82
2023/11/14 16:27:34;;;;;;;0.10;0.10;;;13.90;79.40;;;;;;4975539;28;20026;-82
2023/11/14 16:29:59;;;;;;;0.10;0.10;;;13.90;79.70;;;;;;4959827;28;20023;-82
2023/11/14 16:32:25;;;;;;;0.10;0.10;;;13.80;79.80;;;;;;4960229;29;20047;-82
2023/11/14 16:34:50;;;;;;;0.05;0.05;;;13.90;80.20;;;;;;4960147;29;20119;-82
2023/11/14 16:37:16;;;;;;;0.10;0.10;;;13.80;80.30;;;;;;4960274;28;20027;-82
2023/11/14 16:39:42;;;;;;;0.10;0.10;;;13.80;80.70;;;;;;4961527;28;20031;-82
2023/11/14 16:42:08;;;;;;;0.10;0.10;;;13.80;80.20;;;;;;4969422;28;20091;-83
2023/11/14 16:44:34;;;;;;;0.10;0.10;;;13.80;80.10;;;;;;4975059;28;20030;-82
2023/11/14 16:47:05;;;;;;;0.10;0.10;;;13.90;80.30;;;;;;4960048;29;20051;-82
2023/11/14 16:49:32;;;;;;;0.10;0.10;;;13.90;80.30;;;;;;4959559;28;20035;-82
2023/11/14 16:51:57;;;;;;;0.00;0.00;;;13.90;80.30;;;;;;4960026;29;20029;-82
2023/11/14 16:54:23;;;;;;;0.00;0.00;;;13.90;80.00;;;;;;4959550;28;20478;-82
2023/11/14 16:56:48;;;;;;;0.10;0.10;;;13.90;80.50;;;;;;4959927;29;20095;-82
2023/11/14 16:59:14;;;;;;;0.10;0.10;;;13.90;80.10;;;;;;4974641;28;20852;-82
2023/11/14 17:01:43;;;;;;;0.00;0.00;;;13.90;80.30;;;;;;4975286;28;20057;-82
2023/11/14 17:04:09;;;;;;;0.03;0.03;;;13.90;80.50;;;;;;4968999;28;20042;-82
2023/11/14 17:06:35;;;;;;;0.10;0.10;;;13.90;80.50;;;;;;4959644;29;20082;-82
2023/11/14 17:09:01;;;;;;;0.10;0.10;;;14.00;80.60;;;;;;4942376;28;20023;-82
2023/11/14 17:11:27;;;;;;;0.10;0.10;;;13.90;80.30;;;;;;4958611;29;20058;-82
2023/11/14 17:13:53;;;;;;;0.10;0.10;;;13.90;80.80;;;;;;4959429;29;20035;-82
2023/11/14 17:16:19;;;;;;;0.10;0.10;;;13.90;80.50;;;;;;4962350;28;20025;-82
2023/11/14 17:18:44;;;;;;;0.10;0.10;;;13.90;80.40;;;;;;4957272;29;20039;-83
2023/11/14 17:21:11;;;;;;;0.10;0.10;;;13.80;81.00;;;;;;4979923;28;20057;-82
2023/11/14 17:23:37;;;;;;;0.10;0.10;;;13.80;80.90;;;;;;4969254;28;20032;-78
2023/11/14 17:26:04;;;;;;;0.10;0.10;;;13.80;81.00;;;;;;4965967;28;20480;-80
2023/11/14 17:28:30;;;;;;;0.10;0.10;;;13.80;80.90;;;;;;4971284;28;20037;-80
2023/11/14 17:30:56;;;;;;;0.10;0.10;;;13.70;80.60;;;;;;4969431;28;20110;-79
2023/11/14 17:33:21;;;;;;;0.10;0.10;;;13.80;81.10;;;;;;4941793;29;20043;-78
2023/11/14 17:35:48;;;;;;;0.10;0.10;;;13.70;81.00;;;;;;4951082;28;20058;-83
2023/11/14 17:38:14;;;;;;;0.10;0.10;;;13.70;81.00;;;;;;4983249;28;20026;-77
2023/11/14 17:40:40;;;;;;;0.05;0.05;;;13.60;81.10;;;;;;4980413;28;20401;-79
2023/11/14 17:43:06;;;;;;;0.10;0.10;;;13.60;81.10;;;;;;4960874;28;20034;-82
2023/11/14 17:45:35;;;;;;;0.00;0.00;;;13.60;81.30;;;;;;4979618;28;20024;-81
2023/11/14 17:48:01;;;;;;;0.10;0.10;;;13.50;81.60;;;;;;4986747;28;20110;-82
2023/11/14 17:50:27;;;;;;;0.10;0.10;;;13.50;81.60;;;;;;4965870;28;20058;-81
2023/11/14 17:52:52;;;;;;;0.10;0.10;;;13.50;81.60;;;;;;4987094;28;20036;-77
2023/11/14 17:55:18;;;;;;;0.10;0.10;;;13.50;81.70;;;;;;4984395;28;21506;-77
2023/11/14 17:57:44;;;;;;;0.10;0.10;;;13.50;81.60;;;;;;4983200;28;20154;-77
2023/11/14 18:00:13;;;;;;;0.10;0.10;;;13.50;81.90;;;;;;4978075;28;20034;-77
2023/11/14 18:02:39;;;;;;;0.10;0.10;;;13.50;81.60;;;;;;4978967;28;20030;-78
2023/11/14 18:05:07;;;;;;;0.10;0.10;;;13.50;81.40;;;;;;4981965;28;20023;-77
2023/11/14 18:07:32;;;;;;;0.10;0.10;;;13.50;81.60;;;;;;4986268;28;20448;-77
2023/11/14 18:09:58;;;;;;;0.10;0.10;;;13.50;81.50;;;;;;4982846;28;20038;-77
2023/11/14 18:12:23;;;;;;;0.10;0.10;;;13.40;81.80;;;;;;4957507;28;20098;-77
2023/11/14 18:14:49;;;;;;;0.10;0.10;;;13.40;81.50;;;;;;4974381;28;20031;-77
2023/11/14 18:17:14;;;;;;;0.10;0.10;;;13.30;82.00;;;;;;4976703;28;20074;-77